createdAt,value
2023-08-07T00:02:13.350Z,97067.00
2023-08-07T00:04:40.540Z,97070.00
2023-08-07T00:07:07.820Z,97070.00
2023-08-07T00:09:35.045Z,97071.00
2023-08-07T00:12:02.285Z,97069.00
2023-08-07T00:14:29.481Z,97072.00
2023-08-07T00:16:56.688Z,97077.00
2023-08-07T00:19:24.126Z,97064.00
2023-08-07T00:21:51.430Z,97064.00
2023-08-07T00:24:18.623Z,97068.00
2023-08-07T00:26:45.867Z,97072.00
2023-08-07T00:29:13.376Z,97069.00
2023-08-07T00:31:40.695Z,97068.00
2023-08-07T00:34:07.937Z,97063.00
2023-08-07T00:36:36.098Z,97074.00
2023-08-07T00:39:07.089Z,97070.00
2023-08-07T00:41:34.305Z,97078.00
2023-08-07T00:44:01.876Z,97084.00
2023-08-07T00:46:31.107Z,97080.00
2023-08-07T00:48:58.565Z,97076.00
2023-08-07T00:51:25.848Z,97076.00
2023-08-07T00:53:53.316Z,97068.00
2023-08-07T00:56:20.732Z,97075.00
2023-08-07T00:58:47.995Z,97074.00
2023-08-07T01:01:15.716Z,97077.00
2023-08-07T01:03:43.018Z,97080.00
2023-08-07T01:06:10.244Z,97076.00
2023-08-07T01:08:37.819Z,97086.00
2023-08-07T01:11:11.144Z,97081.00
2023-08-07T01:13:57.094Z,97072.00
2023-08-07T01:16:41.732Z,97078.00
2023-08-07T01:19:15.358Z,97077.00
2023-08-07T01:21:49.044Z,97069.00
2023-08-07T01:24:16.336Z,97079.00
2023-08-07T01:26:47.377Z,97078.00
2023-08-07T01:29:18.611Z,97081.00
2023-08-07T01:31:46.764Z,97080.00
2023-08-07T01:34:15.614Z,97089.00
2023-08-07T01:36:43.047Z,97080.00
2023-08-07T01:39:10.580Z,97092.00
2023-08-07T01:41:37.972Z,97090.00
2023-08-07T01:44:22.764Z,97093.00
2023-08-07T01:46:56.400Z,97093.00
2023-08-07T01:49:31.070Z,97093.00
2023-08-07T01:52:28.748Z,97079.00
2023-08-07T01:58:28.024Z,97091.00
2023-08-07T02:00:55.489Z,97092.00
2023-08-07T02:03:22.800Z,97094.00
2023-08-07T02:06:31.078Z,97086.00
2023-08-07T02:09:28.736Z,97087.00
2023-08-07T02:11:55.958Z,97099.00
2023-08-07T02:14:23.212Z,97088.00
2023-08-07T02:16:50.446Z,97100.00
2023-08-07T02:19:17.663Z,97096.00
2023-08-07T02:21:44.906Z,97097.00
2023-08-07T02:24:12.109Z,97100.00
2023-08-07T02:26:39.318Z,97094.00
2023-08-07T02:29:08.385Z,97102.00
2023-08-07T02:31:35.607Z,97104.00
2023-08-07T02:34:02.800Z,97106.00
2023-08-07T02:36:30.012Z,97093.00
2023-08-07T02:38:57.191Z,97105.00
2023-08-07T02:41:24.416Z,97097.00
2023-08-07T02:43:51.755Z,97093.00
2023-08-07T02:46:19.052Z,97094.00
2023-08-07T02:48:46.390Z,97100.00
2023-08-07T02:51:13.611Z,97093.00
2023-08-07T02:53:40.850Z,97097.00
2023-08-07T02:56:08.195Z,97090.00
2023-08-07T02:58:35.371Z,97091.00
2023-08-07T03:01:09.121Z,97094.00
2023-08-07T03:03:36.704Z,97104.00
2023-08-07T03:06:04.314Z,97104.00
2023-08-07T03:08:31.548Z,97100.00
2023-08-07T03:10:59.551Z,97100.00
2023-08-07T03:13:27.581Z,97092.00
2023-08-07T03:16:05.593Z,97091.00
2023-08-07T03:18:33.168Z,97087.00
2023-08-07T03:21:00.803Z,97088.00
2023-08-07T03:23:28.850Z,97093.00
2023-08-07T03:28:40.692Z,97088.00
2023-08-07T03:31:08.182Z,97094.00
2023-08-07T03:33:35.658Z,97094.00
2023-08-07T03:36:02.898Z,97086.00
2023-08-07T03:38:30.142Z,97085.00
2023-08-07T03:40:57.362Z,97091.00
2023-08-07T03:43:24.579Z,97088.00
2023-08-07T03:45:59.538Z,97097.00
2023-08-07T03:48:29.829Z,97094.00
2023-08-07T03:51:06.906Z,97094.00
2023-08-07T03:53:34.153Z,97087.00
2023-08-07T03:56:01.372Z,97090.00
2023-08-07T03:58:28.584Z,97087.00
2023-08-07T04:00:56.327Z,97084.00
2023-08-07T04:03:23.783Z,97091.00
2023-08-07T04:05:54.912Z,97092.00
2023-08-07T04:08:24.163Z,97097.00
2023-08-07T04:11:01.889Z,97090.00
2023-08-07T04:13:29.377Z,97099.00
2023-08-07T04:15:57.210Z,97104.00
2023-08-07T04:18:24.707Z,97109.00
2023-08-07T04:20:53.800Z,97106.00
2023-08-07T04:23:21.443Z,97115.00
2023-08-07T04:25:53.026Z,97105.00
2023-08-07T04:28:20.505Z,97094.00
2023-08-07T04:30:54.803Z,97093.00
2023-08-07T04:33:22.542Z,97093.00
2023-08-07T04:35:49.953Z,97089.00
2023-08-07T04:38:18.153Z,97093.00
2023-08-07T04:40:49.354Z,97102.00
2023-08-07T04:43:16.840Z,97107.00
2023-08-07T04:45:46.070Z,97111.00
2023-08-07T04:48:14.130Z,97122.00
2023-08-07T04:50:41.832Z,97120.00
2023-08-07T04:53:09.118Z,97120.00
2023-08-07T04:55:36.407Z,97112.00
2023-08-07T04:58:03.645Z,97111.00
2023-08-07T05:00:30.887Z,97120.00
2023-08-07T05:02:58.287Z,97133.00
2023-08-07T05:05:25.605Z,97127.00
2023-08-07T05:07:52.868Z,97127.00
2023-08-07T05:10:20.313Z,97132.00
2023-08-07T05:12:48.531Z,97126.00
2023-08-07T05:15:15.796Z,97128.00
2023-08-07T05:17:43.665Z,97128.00
2023-08-07T05:20:11.490Z,97130.00
2023-08-07T05:22:38.952Z,97143.00
2023-08-07T05:25:06.715Z,97140.00
2023-08-07T05:27:33.930Z,97134.00
2023-08-07T05:30:01.406Z,97135.00
2023-08-07T05:32:29.292Z,97138.00
2023-08-07T05:34:56.772Z,97137.00
2023-08-07T05:37:23.992Z,97146.00
2023-08-07T05:39:51.304Z,97136.00
2023-08-07T05:42:18.514Z,97139.00
2023-08-07T05:44:45.783Z,97135.00
2023-08-07T05:47:13.079Z,97141.00
2023-08-07T05:49:40.428Z,97143.00
2023-08-07T05:52:08.316Z,97141.00
2023-08-07T05:54:35.627Z,97150.00
2023-08-07T05:57:02.830Z,97145.00
2023-08-07T05:59:30.679Z,97144.00
2023-08-07T06:02:00.073Z,97148.00
2023-08-07T06:04:27.720Z,97150.00
2023-08-07T06:06:54.929Z,97151.00
2023-08-07T06:09:22.852Z,97163.00
2023-08-07T06:11:50.279Z,97165.00
2023-08-07T06:14:17.815Z,97168.00
2023-08-07T06:16:45.231Z,97161.00
2023-08-07T06:19:24.978Z,97170.00
2023-08-07T06:21:57.454Z,97173.00
2023-08-07T06:24:26.331Z,97165.00
2023-08-07T06:26:53.641Z,97169.00
2023-08-07T06:29:20.934Z,97176.00
2023-08-07T06:31:48.260Z,97173.00
2023-08-07T06:34:15.608Z,97172.00
2023-08-07T06:36:42.879Z,97178.00
2023-08-07T06:39:10.132Z,97183.00
2023-08-07T06:41:38.305Z,97175.00
2023-08-07T06:44:05.636Z,97183.00
2023-08-07T06:46:32.843Z,97185.00
2023-08-07T06:49:00.107Z,97199.00
2023-08-07T06:51:27.634Z,97191.00
2023-08-07T06:53:54.846Z,97187.00
2023-08-07T06:56:22.211Z,97192.00
2023-08-07T06:58:49.465Z,97195.00
2023-08-07T07:01:16.899Z,97187.00
2023-08-07T07:03:46.687Z,97199.00
2023-08-07T07:06:14.266Z,97202.00
2023-08-07T07:08:41.650Z,97199.00
2023-08-07T07:11:09.487Z,97207.00
2023-08-07T07:13:37.201Z,97206.00
2023-08-07T07:16:04.558Z,97210.00
2023-08-07T07:18:32.122Z,97209.00
2023-08-07T07:20:59.899Z,97215.00
2023-08-07T07:23:27.487Z,97208.00
2023-08-07T07:25:54.732Z,97217.00
2023-08-07T07:28:22.632Z,97222.00
2023-08-07T07:30:53.083Z,97226.00
2023-08-07T07:33:20.344Z,97231.00
2023-08-07T07:35:47.614Z,97224.00
2023-08-07T07:38:16.424Z,97227.00
2023-08-07T07:40:43.715Z,97226.00
2023-08-07T07:43:11.232Z,97232.00
2023-08-07T07:45:38.520Z,97236.00
2023-08-07T07:48:07.498Z,97240.00
2023-08-07T07:50:34.750Z,97241.00
2023-08-07T07:53:02.045Z,97242.00
2023-08-07T07:55:29.274Z,97244.00
2023-08-07T07:57:56.533Z,97242.00
2023-08-07T08:00:27.887Z,97242.00
2023-08-07T08:02:55.320Z,97248.00
2023-08-07T08:05:22.825Z,97244.00
2023-08-07T08:07:50.298Z,97255.00
2023-08-07T08:10:17.610Z,97247.00
2023-08-07T08:12:45.031Z,97246.00
2023-08-07T08:15:12.433Z,97239.00
2023-08-07T08:17:40.273Z,97240.00
2023-08-07T08:20:08.960Z,97244.00
2023-08-07T08:22:36.293Z,97257.00
2023-08-07T08:25:05.510Z,97255.00
2023-08-07T08:27:32.780Z,97257.00
2023-08-07T08:30:00.403Z,97264.00
2023-08-07T08:32:27.817Z,97261.00
2023-08-07T08:34:55.085Z,97265.00
2023-08-07T08:37:22.428Z,97262.00
2023-08-07T08:39:50.025Z,97266.00
2023-08-07T08:42:20.377Z,97266.00
2023-08-07T08:44:52.700Z,97266.00
2023-08-07T08:47:20.098Z,97264.00
2023-08-07T08:50:02.725Z,97272.00
2023-08-07T08:52:35.794Z,97265.00
2023-08-07T08:55:03.150Z,97262.00
2023-08-07T08:57:31.024Z,97262.00
2023-08-07T09:00:03.105Z,97264.00
2023-08-07T09:02:30.481Z,97259.00
2023-08-07T09:04:58.454Z,97267.00
2023-08-07T09:07:25.936Z,97261.00
2023-08-07T09:09:53.233Z,97259.00
2023-08-07T09:12:28.100Z,97252.00
2023-08-07T09:14:58.233Z,97249.00
2023-08-07T09:17:32.729Z,97245.00
2023-08-07T09:20:00.214Z,97248.00
2023-08-07T09:22:27.469Z,97257.00
2023-08-07T09:24:54.674Z,97259.00
2023-08-07T09:27:22.324Z,97249.00
2023-08-07T09:29:50.244Z,97246.00
2023-08-07T09:32:19.533Z,97252.00
2023-08-07T09:34:46.730Z,97247.00
2023-08-07T09:37:13.941Z,97253.00
2023-08-07T09:39:42.526Z,97259.00
2023-08-07T09:42:16.594Z,97260.00
2023-08-07T09:44:46.093Z,97267.00
2023-08-07T09:47:17.088Z,97263.00
2023-08-07T09:49:45.805Z,97268.00
2023-08-07T09:52:16.495Z,97255.00
2023-08-07T09:54:43.763Z,97256.00
2023-08-07T09:57:10.964Z,97252.00
2023-08-07T09:59:38.279Z,97256.00
2023-08-07T10:02:06.160Z,97265.00
2023-08-07T10:04:33.411Z,97262.00
2023-08-07T10:07:01.581Z,97257.00
2023-08-07T10:09:29.054Z,97264.00
2023-08-07T10:11:56.331Z,97272.00
2023-08-07T10:14:23.825Z,97275.00
2023-08-07T10:16:52.384Z,97276.00
2023-08-07T10:19:19.653Z,97267.00
2023-08-07T10:21:46.918Z,97267.00
2023-08-07T10:24:14.911Z,97264.00
2023-08-07T10:26:45.359Z,97277.00
2023-08-07T10:29:15.960Z,97275.00
2023-08-07T10:31:44.180Z,97284.00
2023-08-07T10:34:11.506Z,97282.00
2023-08-07T10:36:40.075Z,97279.00
2023-08-07T10:39:09.433Z,97283.00
2023-08-07T10:41:50.435Z,97291.00
2023-08-07T10:44:31.991Z,97289.00
2023-08-07T10:47:00.325Z,97274.00
2023-08-07T10:49:38.785Z,97271.00
2023-08-07T10:52:09.446Z,97273.00
2023-08-07T10:54:43.961Z,97282.00
2023-08-07T10:57:15.218Z,97288.00
2023-08-07T10:59:52.319Z,97283.00
2023-08-07T11:02:27.477Z,97284.00
2023-08-07T11:04:55.202Z,97277.00
2023-08-07T11:07:27.189Z,97279.00
2023-08-07T11:09:55.146Z,97279.00
2023-08-07T11:12:25.248Z,97279.00
2023-08-07T11:14:53.880Z,97284.00
2023-08-07T11:17:21.250Z,97295.00
2023-08-07T11:19:49.320Z,97292.00
2023-08-07T11:22:17.533Z,97292.00
2023-08-07T11:24:45.947Z,97282.00
2023-08-07T11:27:13.165Z,97276.00
2023-08-07T11:29:40.414Z,97280.00
2023-08-07T11:32:09.033Z,97279.00
2023-08-07T11:34:38.234Z,97283.00
2023-08-07T11:37:05.590Z,97275.00
2023-08-07T11:39:32.784Z,97261.00
2023-08-07T11:42:00.787Z,97262.00
2023-08-07T11:44:30.136Z,97270.00
2023-08-07T11:46:57.940Z,97270.00
2023-08-07T11:49:25.573Z,97263.00
2023-08-07T11:51:52.789Z,97271.00
2023-08-07T11:54:20.327Z,97269.00
2023-08-07T11:56:47.594Z,97265.00
2023-08-07T11:59:19.587Z,97259.00
2023-08-07T12:01:47.761Z,97261.00
2023-08-07T12:04:15.049Z,97261.00
2023-08-07T12:06:58.053Z,97255.00
2023-08-07T12:09:27.367Z,97261.00
2023-08-07T12:11:58.740Z,97253.00
2023-08-07T12:14:30.453Z,97264.00
2023-08-07T12:16:57.994Z,97252.00
2023-08-07T12:19:25.673Z,97261.00
2023-08-07T12:21:52.951Z,97258.00
2023-08-07T12:24:21.235Z,97263.00
2023-08-07T12:26:48.625Z,97265.00
2023-08-07T12:29:15.833Z,97267.00
2023-08-07T12:31:43.080Z,97260.00
2023-08-07T12:36:41.935Z,97266.00
2023-08-07T12:39:09.146Z,97266.00
2023-08-07T12:44:06.546Z,97264.00
2023-08-07T12:46:36.145Z,97274.00
2023-08-07T12:49:04.713Z,97276.00
2023-08-07T12:51:31.994Z,97266.00
2023-08-07T12:53:59.210Z,97265.00
2023-08-07T12:56:26.421Z,97264.00
2023-08-07T12:58:53.606Z,97262.00
2023-08-07T13:01:20.833Z,97270.00
2023-08-07T13:03:48.049Z,97265.00
2023-08-07T13:06:15.340Z,97266.00
2023-08-07T13:08:42.561Z,97262.00
2023-08-07T13:11:09.974Z,97258.00
2023-08-07T13:13:39.331Z,97273.00
2023-08-07T13:16:06.675Z,97269.00
2023-08-07T13:18:33.880Z,97268.00
2023-08-07T13:21:01.210Z,97264.00
2023-08-07T13:23:28.603Z,97273.00
2023-08-07T13:25:56.803Z,97270.00
2023-08-07T13:28:25.055Z,97264.00
2023-08-07T13:30:52.649Z,97269.00
2023-08-07T13:33:21.229Z,97260.00
2023-08-07T13:35:48.500Z,97269.00
2023-08-07T13:38:19.503Z,97271.00
2023-08-07T13:40:46.769Z,97274.00
2023-08-07T13:43:14.006Z,97270.00
2023-08-07T13:45:41.251Z,97266.00
2023-08-07T13:48:10.500Z,97262.00
2023-08-07T13:50:39.250Z,97266.00
2023-08-07T13:53:14.558Z,97262.00
2023-08-07T13:55:42.884Z,97266.00
2023-08-07T13:58:10.957Z,97257.00
2023-08-07T14:00:39.707Z,97258.00
2023-08-07T14:03:07.005Z,97269.00
2023-08-07T14:05:34.288Z,97268.00
2023-08-07T14:08:01.659Z,97265.00
2023-08-07T14:10:28.826Z,97278.00
2023-08-07T14:12:56.024Z,97267.00
2023-08-07T14:15:23.438Z,97286.00
2023-08-07T14:17:50.726Z,97280.00
2023-08-07T14:20:17.971Z,97279.00
2023-08-07T14:22:45.191Z,97291.00
2023-08-07T14:25:12.417Z,97288.00
2023-08-07T14:27:39.655Z,97279.00
2023-08-07T14:30:07.488Z,97280.00
2023-08-07T14:32:34.803Z,97272.00
2023-08-07T14:35:02.030Z,97271.00
2023-08-07T14:37:29.513Z,97273.00
2023-08-07T14:39:56.794Z,97269.00
2023-08-07T14:42:25.229Z,97269.00
2023-08-07T14:44:52.508Z,97277.00
2023-08-07T14:47:19.720Z,97285.00
2023-08-07T14:49:46.995Z,97280.00
2023-08-07T14:52:14.211Z,97280.00
2023-08-07T14:54:41.443Z,97282.00
2023-08-07T14:57:08.670Z,97281.00
2023-08-07T14:59:35.994Z,97281.00
2023-08-07T15:02:03.414Z,97289.00
2023-08-07T15:04:30.692Z,97288.00
2023-08-07T15:06:57.933Z,97282.00
2023-08-07T15:09:26.460Z,97274.00
2023-08-07T15:11:53.671Z,97280.00
2023-08-07T15:14:20.891Z,97295.00
2023-08-07T15:16:48.145Z,97283.00
2023-08-07T15:19:15.459Z,97284.00
2023-08-07T15:21:43.312Z,97283.00
2023-08-07T15:24:10.537Z,97276.00
2023-08-07T15:26:37.882Z,97284.00
2023-08-07T15:29:05.479Z,97280.00
2023-08-07T15:31:33.886Z,97278.00
2023-08-07T15:34:01.199Z,97274.00
2023-08-07T15:36:28.508Z,97276.00
2023-08-07T15:38:55.772Z,97271.00
2023-08-07T15:41:23.418Z,97274.00
2023-08-07T15:43:50.750Z,97267.00
2023-08-07T15:46:18.626Z,97272.00
2023-08-07T15:48:46.199Z,97268.00
2023-08-07T15:51:13.443Z,97267.00
2023-08-07T15:53:40.757Z,97266.00
2023-08-07T15:56:08.530Z,97271.00
2023-08-07T15:58:36.881Z,97271.00
2023-08-07T16:01:04.164Z,97263.00
2023-08-07T16:03:31.411Z,97257.00
2023-08-07T16:05:58.603Z,97254.00
2023-08-07T16:08:25.845Z,97254.00
2023-08-07T16:10:53.790Z,97247.00
2023-08-07T16:13:21.283Z,97262.00
2023-08-07T16:15:48.580Z,97254.00
2023-08-07T16:18:15.851Z,97264.00
2023-08-07T16:20:43.088Z,97256.00
2023-08-07T16:23:10.337Z,97257.00
2023-08-07T16:25:37.632Z,97268.00
2023-08-07T16:28:06.416Z,97255.00
2023-08-07T16:30:33.681Z,97255.00
2023-08-07T16:33:00.989Z,97266.00
2023-08-07T16:35:28.707Z,97266.00
2023-08-07T16:37:56.006Z,97267.00
2023-08-07T16:40:23.288Z,97261.00
2023-08-07T16:42:50.902Z,97262.00
2023-08-07T16:45:18.149Z,97268.00
2023-08-07T16:47:45.349Z,97268.00
2023-08-07T16:50:24.272Z,97276.00
2023-08-07T16:52:56.988Z,97273.00
2023-08-07T16:55:28.926Z,97273.00
2023-08-07T16:58:02.758Z,97274.00
2023-08-07T17:00:34.198Z,97278.00
2023-08-07T17:03:10.475Z,97277.00
2023-08-07T17:05:38.623Z,97282.00
2023-08-07T17:08:08.590Z,97289.00
2023-08-07T17:10:35.864Z,97282.00
2023-08-07T17:13:09.493Z,97287.00
2023-08-07T17:15:38.804Z,97285.00
2023-08-07T17:24:29.968Z,97276.00
2023-08-07T17:27:05.940Z,97285.00
2023-08-07T17:30:02.645Z,97282.00
2023-08-07T17:32:38.590Z,97280.00
2023-08-07T17:35:13.193Z,97281.00
2023-08-07T17:37:47.388Z,97283.00
2023-08-07T17:40:22.725Z,97288.00
2023-08-07T17:42:55.711Z,97277.00
2023-08-07T17:46:00.140Z,97284.00
2023-08-07T17:48:50.438Z,97283.00
2023-08-07T17:51:17.663Z,97286.00
2023-08-07T17:53:44.873Z,97284.00
2023-08-07T17:56:12.125Z,97291.00
2023-08-07T17:58:39.434Z,97287.00
2023-08-07T18:01:06.744Z,97284.00
2023-08-07T18:03:34.004Z,97292.00
2023-08-07T18:06:01.300Z,97293.00
2023-08-07T18:08:28.544Z,97289.00
2023-08-07T18:10:55.738Z,97285.00
2023-08-07T18:13:23.019Z,97285.00
2023-08-07T18:15:50.251Z,97283.00
2023-08-07T18:18:17.486Z,97281.00
2023-08-07T18:20:44.749Z,97285.00
2023-08-07T18:23:11.941Z,97287.00
2023-08-07T18:25:39.209Z,97283.00
2023-08-07T18:28:06.841Z,97296.00
2023-08-07T18:30:34.112Z,97280.00
2023-08-07T18:33:01.420Z,97282.00
2023-08-07T18:35:28.651Z,97285.00
2023-08-07T18:37:55.877Z,97284.00
2023-08-07T18:40:23.147Z,97281.00
2023-08-07T18:42:50.391Z,97281.00
2023-08-07T18:45:17.746Z,97288.00
2023-08-07T18:47:45.043Z,97283.00
2023-08-07T18:50:12.324Z,97289.00
2023-08-07T18:52:39.556Z,97283.00
2023-08-07T18:55:07.035Z,97292.00
2023-08-07T18:57:34.240Z,97285.00
2023-08-07T19:00:01.499Z,97295.00
2023-08-07T19:02:28.735Z,97290.00
2023-08-07T19:04:56.007Z,97286.00
2023-08-07T19:07:23.246Z,97280.00
2023-08-07T19:09:50.473Z,97289.00
2023-08-07T19:12:17.706Z,97289.00
2023-08-07T19:14:44.964Z,97283.00
2023-08-07T19:17:12.176Z,97290.00
2023-08-07T19:19:39.443Z,97278.00
2023-08-07T19:22:06.658Z,97285.00
2023-08-07T19:24:33.925Z,97275.00
2023-08-07T19:27:01.440Z,97279.00
2023-08-07T19:29:28.966Z,97279.00
2023-08-07T19:31:56.339Z,97285.00
2023-08-07T19:34:24.126Z,97283.00
2023-08-07T19:36:51.590Z,97292.00
2023-08-07T19:39:19.098Z,97288.00
2023-08-07T19:41:46.575Z,97291.00
2023-08-07T19:44:13.769Z,97296.00
2023-08-07T19:46:41.021Z,97291.00
2023-08-07T19:49:08.664Z,97293.00
2023-08-07T19:51:35.935Z,97300.00
2023-08-07T19:54:03.239Z,97291.00
2023-08-07T19:56:33.331Z,97287.00
2023-08-07T19:59:04.757Z,97282.00
2023-08-07T20:01:32.902Z,97292.00
2023-08-07T20:04:00.492Z,97295.00
2023-08-07T20:06:28.278Z,97297.00
2023-08-07T20:08:55.858Z,97299.00
2023-08-07T20:11:23.081Z,97299.00
2023-08-07T20:13:50.313Z,97293.00
2023-08-07T20:16:17.564Z,97291.00
2023-08-07T20:18:44.857Z,97291.00
2023-08-07T20:21:14.386Z,97302.00
2023-08-07T20:23:43.732Z,97302.00
2023-08-07T20:26:10.948Z,97303.00
2023-08-07T20:28:38.169Z,97301.00
2023-08-07T20:31:05.429Z,97300.00
2023-08-07T20:33:32.681Z,97296.00
2023-08-07T20:36:00.316Z,97304.00
2023-08-07T20:38:27.551Z,97302.00
2023-08-07T20:40:54.775Z,97290.00
2023-08-07T20:43:21.997Z,97295.00
2023-08-07T20:45:49.237Z,97298.00
2023-08-07T20:48:16.702Z,97298.00
2023-08-07T20:50:43.881Z,97299.00
2023-08-07T20:53:11.105Z,97305.00
2023-08-07T20:55:38.311Z,97303.00
2023-08-07T20:58:05.822Z,97301.00
2023-08-07T21:00:33.099Z,97296.00
2023-08-07T21:03:00.430Z,97299.00
2023-08-07T21:05:27.700Z,97295.00
2023-08-07T21:07:54.934Z,97295.00
2023-08-07T21:10:22.154Z,97297.00
2023-08-07T21:12:49.426Z,97299.00
2023-08-07T21:15:16.800Z,97290.00
2023-08-07T21:17:44.090Z,97295.00
2023-08-07T21:20:11.792Z,97288.00
2023-08-07T21:22:39.401Z,97288.00
2023-08-07T21:25:07.351Z,97282.00
2023-08-07T21:27:35.021Z,97287.00
2023-08-07T21:30:02.778Z,97280.00
2023-08-07T21:32:30.060Z,97280.00
2023-08-07T21:34:57.424Z,97281.00
2023-08-07T21:37:31.547Z,97276.00
2023-08-07T21:39:59.042Z,97274.00
2023-08-07T21:42:26.265Z,97272.00
2023-08-07T21:44:54.754Z,97265.00
2023-08-07T21:47:21.985Z,97265.00
2023-08-07T21:49:49.249Z,97260.00
2023-08-07T21:52:16.548Z,97262.00
2023-08-07T21:54:43.822Z,97253.00
2023-08-07T21:57:11.025Z,97254.00
2023-08-07T21:59:38.232Z,97261.00
2023-08-07T22:02:05.724Z,97258.00
2023-08-07T22:04:33.424Z,97254.00
2023-08-07T22:07:00.862Z,97248.00
2023-08-07T22:09:28.150Z,97257.00
2023-08-07T22:11:55.777Z,97252.00
2023-08-07T22:14:23.245Z,97244.00
2023-08-07T22:16:51.082Z,97245.00
2023-08-07T22:19:18.494Z,97240.00
2023-08-07T22:21:45.744Z,97241.00
2023-08-07T22:24:12.977Z,97233.00
2023-08-07T22:26:40.189Z,97236.00
2023-08-07T22:29:07.423Z,97232.00
2023-08-07T22:31:34.634Z,97225.00
2023-08-07T22:34:01.921Z,97229.00
2023-08-07T22:36:29.153Z,97225.00
2023-08-07T22:38:56.731Z,97227.00
2023-08-07T22:41:23.937Z,97230.00
2023-08-07T22:43:51.255Z,97226.00
2023-08-07T22:46:18.557Z,97225.00
2023-08-07T22:48:45.787Z,97223.00
2023-08-07T22:51:13.038Z,97226.00
2023-08-07T22:53:40.238Z,97222.00
2023-08-07T22:56:07.481Z,97223.00
2023-08-07T22:58:34.682Z,97218.00
2023-08-07T23:01:02.453Z,97223.00
2023-08-07T23:03:29.715Z,97219.00
2023-08-07T23:05:56.976Z,97220.00
2023-08-07T23:08:24.268Z,97212.00
2023-08-07T23:10:53.102Z,97217.00
2023-08-07T23:13:20.389Z,97215.00
2023-08-07T23:15:48.231Z,97205.00
2023-08-07T23:18:15.683Z,97210.00
2023-08-07T23:20:42.969Z,97209.00
2023-08-07T23:23:10.708Z,97200.00
2023-08-07T23:25:37.904Z,97205.00
2023-08-07T23:28:05.436Z,97207.00
2023-08-07T23:30:33.197Z,97208.00
2023-08-07T23:33:01.516Z,97196.00
2023-08-07T23:35:29.022Z,97187.00
2023-08-07T23:37:56.222Z,97190.00
2023-08-07T23:40:23.802Z,97189.00
2023-08-07T23:42:50.989Z,97188.00
2023-08-07T23:45:18.289Z,97191.00
2023-08-07T23:47:45.560Z,97184.00
2023-08-07T23:50:12.991Z,97182.00
2023-08-07T23:52:40.248Z,97192.00
2023-08-07T23:55:07.941Z,97179.00
2023-08-07T23:57:35.185Z,97181.00
